createdAt,value
2019-02-25T00:00:41.273Z,55.56
2019-02-25T00:01:41.619Z,55.98
2019-02-25T00:02:41.793Z,55.77
2019-02-25T00:03:42.038Z,55.04
2019-02-25T00:04:42.292Z,54.93
2019-02-25T00:05:42.540Z,55.66
2019-02-25T00:06:42.801Z,56.49
2019-02-25T00:07:43.052Z,56.29
2019-02-25T00:08:43.347Z,55.58
2019-02-25T00:09:43.713Z,56.00
2019-02-25T00:10:43.813Z,55.90
2019-02-25T00:11:44.079Z,56.73
2019-02-25T00:12:44.351Z,57.35
2019-02-25T00:13:44.605Z,56.93
2019-02-25T00:14:44.837Z,57.25
2019-02-25T00:15:45.087Z,56.93
2019-02-25T00:16:45.590Z,56.93
2019-02-25T00:17:45.681Z,56.93
2019-02-25T00:18:45.868Z,57.01
2019-02-25T00:19:46.105Z,57.12
2019-02-25T00:20:46.355Z,57.15
2019-02-25T00:21:46.646Z,57.53
2019-02-25T00:22:46.851Z,57.43
2019-02-25T00:23:47.134Z,56.91
2019-02-25T00:24:47.370Z,57.01
2019-02-25T00:25:47.697Z,56.60
2019-02-25T00:26:47.884Z,56.10
2019-02-25T00:27:48.114Z,57.04
2019-02-25T00:28:48.362Z,56.41
2019-02-25T00:29:48.632Z,56.93
2019-02-25T00:30:48.882Z,57.04
2019-02-25T00:31:49.156Z,56.83
2019-02-25T00:32:49.400Z,57.87
2019-02-25T00:33:49.675Z,58.42
2019-02-25T00:34:49.883Z,58.00
2019-02-25T00:35:50.163Z,59.15
2019-02-25T00:36:50.431Z,59.05
2019-02-25T00:37:50.677Z,59.15
2019-02-25T00:38:50.925Z,59.28
2019-02-25T00:39:51.196Z,59.91
2019-02-25T00:40:51.435Z,59.07
2019-02-25T00:41:51.782Z,60.01
2019-02-25T00:42:52.007Z,60.32
2019-02-25T00:43:52.208Z,60.85
2019-02-25T00:44:52.476Z,60.71
2019-02-25T00:45:52.696Z,60.92
2019-02-25T00:46:52.985Z,60.92
2019-02-25T00:47:53.241Z,60.61
2019-02-25T00:48:53.475Z,60.19
2019-02-25T00:49:53.756Z,61.02
2019-02-25T00:50:54.098Z,60.92
2019-02-25T00:51:54.249Z,61.02
2019-02-25T00:52:54.488Z,60.71
2019-02-25T00:53:54.738Z,60.19
2019-02-25T00:54:55.003Z,59.85
2019-02-25T00:55:55.224Z,60.19
2019-02-25T00:56:55.516Z,59.15
2019-02-25T00:57:55.777Z,60.16
2019-02-25T00:58:56.144Z,60.16
2019-02-25T00:59:56.283Z,59.54
2019-02-25T01:00:56.508Z,59.85
2019-02-25T01:01:56.784Z,59.99
2019-02-25T01:02:57.051Z,59.44
2019-02-25T01:03:57.299Z,58.91
2019-02-25T01:04:57.569Z,58.81
2019-02-25T01:05:57.802Z,59.33
2019-02-25T01:06:58.115Z,59.15
2019-02-25T01:07:58.351Z,58.94
2019-02-25T01:08:58.566Z,59.88
2019-02-25T01:09:58.838Z,60.40
2019-02-25T01:10:59.074Z,60.40
2019-02-25T01:11:59.350Z,60.30
2019-02-25T01:12:59.588Z,60.71
2019-02-25T01:13:59.822Z,60.19
2019-02-25T01:15:00.253Z,60.82
2019-02-25T01:16:00.320Z,60.42
2019-02-25T01:17:00.612Z,60.22
2019-02-25T01:18:00.855Z,60.92
2019-02-25T01:19:01.079Z,60.50
2019-02-25T01:20:01.374Z,60.01
2019-02-25T01:21:01.624Z,60.19
2019-02-25T01:22:01.906Z,59.77
2019-02-25T01:23:02.158Z,59.99
2019-02-25T01:24:02.452Z,60.19
2019-02-25T01:25:02.656Z,60.19
2019-02-25T01:26:02.888Z,60.19
2019-02-25T01:27:03.162Z,60.50
2019-02-25T01:28:03.404Z,60.61
2019-02-25T01:29:03.650Z,61.10
2019-02-25T01:30:03.907Z,61.23
2019-02-25T01:31:04.154Z,61.02
2019-02-25T01:32:04.553Z,60.82
2019-02-25T01:33:04.682Z,61.02
2019-02-25T01:34:04.915Z,60.61
2019-02-25T01:35:05.174Z,61.02
2019-02-25T01:36:05.425Z,61.33
2019-02-25T01:37:05.682Z,60.71
2019-02-25T01:38:05.967Z,61.96
2019-02-25T01:39:06.213Z,61.23
2019-02-25T01:40:06.563Z,61.23
2019-02-25T01:41:06.702Z,61.78
2019-02-25T01:42:06.977Z,61.05
2019-02-25T01:43:07.270Z,60.82
2019-02-25T01:44:07.508Z,60.09
2019-02-25T01:45:07.774Z,60.30
2019-02-25T01:46:07.996Z,60.71
2019-02-25T01:47:08.269Z,60.92
2019-02-25T01:48:08.826Z,60.19
2019-02-25T01:49:08.761Z,60.09
2019-02-25T01:50:09.046Z,60.40
2019-02-25T01:51:09.265Z,60.50
2019-02-25T01:52:09.504Z,60.30
2019-02-25T01:53:09.802Z,60.71
2019-02-25T01:54:10.291Z,60.92
2019-02-25T01:55:10.321Z,60.61
2019-02-25T01:56:10.594Z,62.09
2019-02-25T01:57:10.800Z,63.24
2019-02-25T01:58:11.081Z,62.72
2019-02-25T01:59:11.318Z,63.03
2019-02-25T02:00:11.605Z,62.33
2019-02-25T02:01:11.840Z,63.17
2019-02-25T02:02:12.095Z,63.79
2019-02-25T02:03:12.386Z,63.58
2019-02-25T02:04:12.616Z,63.79
2019-02-25T02:05:12.933Z,63.79
2019-02-25T02:06:13.111Z,63.79
2019-02-25T02:07:13.356Z,63.71
2019-02-25T02:08:13.634Z,63.40
2019-02-25T02:09:13.845Z,63.82
2019-02-25T02:10:14.142Z,63.79
2019-02-25T02:11:14.382Z,63.17
2019-02-25T02:12:14.640Z,63.06
2019-02-25T02:13:15.063Z,63.06
2019-02-25T02:14:15.129Z,63.06
2019-02-25T02:15:15.409Z,63.06
2019-02-25T02:16:15.661Z,63.48
2019-02-25T02:17:15.919Z,63.48
2019-02-25T02:18:16.218Z,63.68
2019-02-25T02:19:16.431Z,63.37
2019-02-25T02:20:16.696Z,63.79
2019-02-25T02:21:16.998Z,64.00
2019-02-25T02:22:17.184Z,64.65
2019-02-25T02:23:17.462Z,64.55
2019-02-25T02:24:17.684Z,65.07
2019-02-25T02:25:17.957Z,65.70
2019-02-25T02:26:18.186Z,65.38
2019-02-25T02:27:18.447Z,64.97
2019-02-25T02:28:18.739Z,65.41
2019-02-25T02:29:18.995Z,65.28
2019-02-25T02:30:19.199Z,65.73
2019-02-25T02:31:19.441Z,65.48
2019-02-25T02:32:19.679Z,65.52
2019-02-25T02:33:20.005Z,64.89
2019-02-25T02:34:20.200Z,64.23
2019-02-25T02:35:20.464Z,64.97
2019-02-25T02:36:20.701Z,64.76
2019-02-25T02:37:21.003Z,64.45
2019-02-25T02:38:21.269Z,64.45
2019-02-25T02:39:21.469Z,64.76
2019-02-25T02:40:21.743Z,64.65
2019-02-25T02:41:21.971Z,65.48
2019-02-25T02:42:22.223Z,65.28
2019-02-25T02:43:22.519Z,65.80
2019-02-25T02:44:22.714Z,66.11
2019-02-25T02:45:23.022Z,65.70
2019-02-25T02:46:23.379Z,66.14
2019-02-25T02:47:23.496Z,66.22
2019-02-25T02:48:23.774Z,66.11
2019-02-25T02:49:23.985Z,65.91
2019-02-25T02:50:24.256Z,66.22
2019-02-25T02:51:24.508Z,66.01
2019-02-25T02:52:24.764Z,66.11
2019-02-25T02:53:25.057Z,65.80
2019-02-25T02:54:25.418Z,66.01
2019-02-25T02:55:25.524Z,66.01
2019-02-25T02:56:25.788Z,65.91
2019-02-25T02:57:26.048Z,66.11
2019-02-25T02:58:26.318Z,66.11
2019-02-25T02:59:26.552Z,66.11
2019-02-25T03:00:26.812Z,66.53
2019-02-25T03:01:27.095Z,66.74
2019-02-25T03:02:27.382Z,66.56
2019-02-25T03:03:27.584Z,66.88
2019-02-25T03:04:27.852Z,66.46
2019-02-25T03:05:28.065Z,66.14
2019-02-25T03:06:28.346Z,66.98
2019-02-25T03:07:28.583Z,66.88
2019-02-25T03:08:28.853Z,67.19
2019-02-25T03:09:29.102Z,67.40
2019-02-25T03:10:29.391Z,67.08
2019-02-25T03:11:29.590Z,66.46
2019-02-25T03:12:29.839Z,66.53
2019-02-25T03:13:30.110Z,66.32
2019-02-25T03:14:30.347Z,66.32
2019-02-25T03:15:30.592Z,66.53
2019-02-25T03:16:30.871Z,67.36
2019-02-25T03:17:31.099Z,67.16
2019-02-25T03:18:31.409Z,66.95
2019-02-25T03:19:31.672Z,66.85
2019-02-25T03:20:31.870Z,67.78
2019-02-25T03:21:32.142Z,68.02
2019-02-25T03:22:32.359Z,66.74
2019-02-25T03:23:32.647Z,66.11
2019-02-25T03:24:32.899Z,66.74
2019-02-25T03:25:33.150Z,65.91
2019-02-25T03:26:33.446Z,66.11
2019-02-25T03:27:33.754Z,66.08
2019-02-25T03:28:33.931Z,65.88
2019-02-25T03:29:34.181Z,65.70
2019-02-25T03:30:34.417Z,65.98
2019-02-25T03:31:34.691Z,65.67
2019-02-25T03:32:34.925Z,65.77
2019-02-25T03:33:35.428Z,66.32
2019-02-25T03:34:35.434Z,66.22
2019-02-25T03:35:35.771Z,66.85
2019-02-25T03:36:35.949Z,67.36
2019-02-25T03:37:36.185Z,66.74
2019-02-25T03:38:36.451Z,67.05
2019-02-25T03:39:36.701Z,66.85
2019-02-25T03:40:36.970Z,66.32
2019-02-25T03:41:37.239Z,66.56
2019-02-25T03:42:37.476Z,67.16
2019-02-25T03:43:37.819Z,67.29
2019-02-25T03:44:37.958Z,66.85
2019-02-25T03:45:38.229Z,67.57
2019-02-25T03:46:38.493Z,67.50
2019-02-25T03:47:38.732Z,68.33
2019-02-25T03:48:39.000Z,67.81
2019-02-25T03:49:39.244Z,68.44
2019-02-25T03:50:39.550Z,68.89
2019-02-25T03:51:39.810Z,69.82
2019-02-25T03:52:39.979Z,69.82
2019-02-25T03:53:40.247Z,69.59
2019-02-25T03:54:40.497Z,69.31
2019-02-25T03:55:40.744Z,68.75
2019-02-25T03:56:41.016Z,69.20
2019-02-25T03:57:41.257Z,69.41
2019-02-25T03:58:41.510Z,70.07
2019-02-25T03:59:41.837Z,70.17
2019-02-25T04:00:42.088Z,70.48
2019-02-25T04:01:42.293Z,70.28
2019-02-25T04:02:42.540Z,70.48
2019-02-25T04:03:42.813Z,70.48
2019-02-25T04:04:43.093Z,70.07
2019-02-25T04:05:43.334Z,69.76
2019-02-25T04:06:43.605Z,69.93
2019-02-25T04:07:43.831Z,69.54
2019-02-25T04:08:44.164Z,70.07
2019-02-25T04:09:44.398Z,69.65
2019-02-25T04:10:44.622Z,69.86
2019-02-25T04:11:44.897Z,69.44
2019-02-25T04:12:45.130Z,70.07
2019-02-25T04:13:45.380Z,70.17
2019-02-25T04:14:45.653Z,70.73
2019-02-25T04:15:45.884Z,71.11
2019-02-25T04:16:46.311Z,71.95
2019-02-25T04:17:46.385Z,72.36
2019-02-25T04:18:46.649Z,72.47
2019-02-25T04:19:46.927Z,72.99
2019-02-25T04:20:47.155Z,73.30
2019-02-25T04:21:47.412Z,73.52
2019-02-25T04:22:47.656Z,73.41
2019-02-25T04:23:47.901Z,73.52
2019-02-25T04:24:48.247Z,73.62
2019-02-25T04:25:48.398Z,73.62
2019-02-25T04:26:48.692Z,72.78
2019-02-25T04:27:48.914Z,72.26
2019-02-25T04:28:49.150Z,72.16
2019-02-25T04:29:49.430Z,72.05
2019-02-25T04:30:49.670Z,72.36
2019-02-25T04:31:49.944Z,72.36
2019-02-25T04:32:50.237Z,72.47
2019-02-25T04:33:50.419Z,73.02
2019-02-25T04:34:50.680Z,72.78
2019-02-25T04:35:50.914Z,73.10
2019-02-25T04:36:51.197Z,73.13
2019-02-25T04:37:51.438Z,73.44
2019-02-25T04:38:51.689Z,73.55
2019-02-25T04:39:51.980Z,74.28
2019-02-25T04:40:52.206Z,74.49
2019-02-25T04:41:52.513Z,74.69
2019-02-25T04:42:52.699Z,74.49
2019-02-25T04:43:52.945Z,74.56
2019-02-25T04:44:53.245Z,74.45
2019-02-25T04:45:53.457Z,73.83
2019-02-25T04:46:53.714Z,73.83
2019-02-25T04:47:53.965Z,73.20
2019-02-25T04:48:54.232Z,73.20
2019-02-25T04:49:54.612Z,73.10
2019-02-25T04:50:54.709Z,73.10
2019-02-25T04:51:54.995Z,73.44
2019-02-25T04:52:55.245Z,73.44
2019-02-25T04:53:55.499Z,73.96
2019-02-25T04:54:55.772Z,74.49
2019-02-25T04:55:56.002Z,74.18
2019-02-25T04:56:56.245Z,74.18
2019-02-25T04:57:56.635Z,74.73
2019-02-25T04:58:56.761Z,74.21
2019-02-25T04:59:57.045Z,75.36
2019-02-25T05:00:57.271Z,74.10
2019-02-25T05:01:57.495Z,74.10
2019-02-25T05:02:57.789Z,74.21
2019-02-25T05:03:58.055Z,74.59
2019-02-25T05:04:58.331Z,74.31
2019-02-25T05:05:58.601Z,74.42
2019-02-25T05:06:58.799Z,74.42
2019-02-25T05:07:59.056Z,74.42
2019-02-25T05:08:59.330Z,74.21
2019-02-25T05:09:59.611Z,74.10
2019-02-25T05:10:59.841Z,74.94
2019-02-25T05:12:00.084Z,75.04
2019-02-25T05:13:00.576Z,74.94
2019-02-25T05:14:00.634Z,75.18
2019-02-25T05:15:00.849Z,74.55
2019-02-25T05:16:01.085Z,75.29
2019-02-25T05:17:01.338Z,75.88
2019-02-25T05:18:01.607Z,75.46
2019-02-25T05:19:01.843Z,75.57
2019-02-25T05:20:02.133Z,75.18
2019-02-25T05:21:02.359Z,74.63
2019-02-25T05:22:02.645Z,74.73
2019-02-25T05:23:02.963Z,74.73
2019-02-25T05:24:03.134Z,74.45
2019-02-25T05:25:03.399Z,75.81
2019-02-25T05:26:03.642Z,75.81
2019-02-25T05:27:03.895Z,75.71
2019-02-25T05:28:04.168Z,74.98
2019-02-25T05:29:04.402Z,74.87
2019-02-25T05:30:04.693Z,75.60
2019-02-25T05:31:05.043Z,75.81
2019-02-25T05:32:05.160Z,76.02
2019-02-25T05:33:05.452Z,75.92
2019-02-25T05:34:05.662Z,76.37
2019-02-25T05:35:05.950Z,75.95
2019-02-25T05:36:06.152Z,76.16
2019-02-25T05:37:06.440Z,76.26
2019-02-25T05:38:06.725Z,76.26
2019-02-25T05:39:07.037Z,76.26
2019-02-25T05:40:07.214Z,76.37
2019-02-25T05:41:07.423Z,76.89
2019-02-25T05:42:07.701Z,77.31
2019-02-25T05:43:07.967Z,77.31
2019-02-25T05:44:08.567Z,76.89
2019-02-25T05:45:08.479Z,76.75
2019-02-25T05:46:08.706Z,76.54
2019-02-25T05:47:09.000Z,76.86
2019-02-25T05:48:09.220Z,76.96
2019-02-25T05:49:09.453Z,77.06
2019-02-25T05:50:09.736Z,77.20
2019-02-25T05:51:09.959Z,77.28
2019-02-25T05:52:10.217Z,77.83
2019-02-25T05:53:10.460Z,78.22
2019-02-25T05:54:10.705Z,77.80
2019-02-25T05:55:11.050Z,78.53
2019-02-25T05:56:11.201Z,78.25
2019-02-25T05:57:11.466Z,78.22
2019-02-25T05:58:11.748Z,78.56
2019-02-25T05:59:11.978Z,78.63
2019-02-25T06:00:12.256Z,77.80
2019-02-25T06:01:12.486Z,78.01
2019-02-25T06:02:12.732Z,78.11
2019-02-25T06:03:13.045Z,78.22
2019-02-25T06:04:13.343Z,77.59
2019-02-25T06:05:13.514Z,77.69
2019-02-25T06:06:13.770Z,78.22
2019-02-25T06:07:14.007Z,78.22
2019-02-25T06:08:14.276Z,78.01
2019-02-25T06:09:14.514Z,77.80
2019-02-25T06:10:14.752Z,78.42
2019-02-25T06:11:15.061Z,78.01
2019-02-25T06:12:15.410Z,78.42
2019-02-25T06:13:15.583Z,78.32
2019-02-25T06:14:15.806Z,78.42
2019-02-25T06:15:16.047Z,78.63
2019-02-25T06:16:16.348Z,78.53
2019-02-25T06:17:16.575Z,78.53
2019-02-25T06:18:16.860Z,78.22
2019-02-25T06:19:17.090Z,78.85
2019-02-25T06:20:17.457Z,79.05
2019-02-25T06:21:17.604Z,79.47
2019-02-25T06:22:17.831Z,79.26
2019-02-25T06:23:18.106Z,80.16
2019-02-25T06:24:18.354Z,79.02
2019-02-25T06:25:18.609Z,79.22
2019-02-25T06:26:18.860Z,79.64
2019-02-25T06:27:19.102Z,79.22
2019-02-25T06:28:19.444Z,78.70
2019-02-25T06:29:19.609Z,78.70
2019-02-25T06:30:19.880Z,78.85
2019-02-25T06:31:20.172Z,78.60
2019-02-25T06:32:20.358Z,79.47
2019-02-25T06:33:20.647Z,78.70
2019-02-25T06:34:20.881Z,78.60
2019-02-25T06:35:21.143Z,79.16
2019-02-25T06:36:21.466Z,79.16
2019-02-25T06:37:21.625Z,79.47
2019-02-25T06:38:21.879Z,79.68
2019-02-25T06:39:22.137Z,79.99
2019-02-25T06:40:22.469Z,80.73
2019-02-25T06:41:22.659Z,80.73
2019-02-25T06:42:22.899Z,80.73
2019-02-25T06:43:23.169Z,80.69
2019-02-25T06:44:23.421Z,80.62
2019-02-25T06:45:23.737Z,80.27
2019-02-25T06:46:23.949Z,80.16
2019-02-25T06:47:24.168Z,80.27
2019-02-25T06:48:24.435Z,80.16
2019-02-25T06:49:24.654Z,79.54
2019-02-25T06:50:24.927Z,79.75
2019-02-25T06:51:25.199Z,79.96
2019-02-25T06:52:25.659Z,79.29
2019-02-25T06:53:25.822Z,79.85
2019-02-25T06:54:25.920Z,79.19
2019-02-25T06:55:26.199Z,78.88
2019-02-25T06:56:26.472Z,79.08
2019-02-25T06:57:26.687Z,79.08
2019-02-25T06:58:26.970Z,78.98
2019-02-25T06:59:27.208Z,79.71
2019-02-25T07:00:27.444Z,79.57
2019-02-25T07:01:27.866Z,79.08
2019-02-25T07:02:27.953Z,78.42
2019-02-25T07:03:28.231Z,78.11
2019-02-25T07:04:28.465Z,76.26
2019-02-25T07:05:28.703Z,77.27
2019-02-25T07:06:29.006Z,76.75
2019-02-25T07:07:29.242Z,75.57
2019-02-25T07:08:29.494Z,73.14
2019-02-25T07:09:29.842Z,70.92
2019-02-25T07:10:29.985Z,68.60
2019-02-25T07:11:30.254Z,67.83
2019-02-25T07:12:30.480Z,67.08
2019-02-25T07:13:30.754Z,65.93
2019-02-25T07:14:31.020Z,65.38
2019-02-25T07:15:31.270Z,63.72
2019-02-25T07:16:31.553Z,63.07
2019-02-25T07:17:31.804Z,63.48
2019-02-25T07:18:32.033Z,62.99
2019-02-25T07:19:32.304Z,63.38
2019-02-25T07:20:32.560Z,62.02
2019-02-25T07:21:32.850Z,62.31
2019-02-25T07:22:33.071Z,61.69
2019-02-25T07:23:33.309Z,60.96
2019-02-25T07:24:33.588Z,60.96
2019-02-25T07:25:33.859Z,60.75
2019-02-25T07:26:34.246Z,60.10
2019-02-25T07:27:34.375Z,59.89
2019-02-25T07:28:36.588Z,59.17
2019-02-25T07:29:34.899Z,59.25
2019-02-25T07:30:35.137Z,58.94
2019-02-25T07:31:35.435Z,59.01
2019-02-25T07:32:35.646Z,58.83
2019-02-25T07:33:35.902Z,59.01
2019-02-25T07:34:36.314Z,58.49
2019-02-25T07:35:36.407Z,58.49
2019-02-25T07:36:36.701Z,58.49
2019-02-25T07:37:36.911Z,58.07
2019-02-25T07:38:39.385Z,58.05
2019-02-25T07:39:37.431Z,57.87
2019-02-25T07:40:37.682Z,58.05
2019-02-25T07:41:38.185Z,56.91
2019-02-25T07:42:38.295Z,56.70
2019-02-25T07:43:38.442Z,56.88
2019-02-25T07:44:38.716Z,56.57
2019-02-25T07:45:38.938Z,56.78
2019-02-25T07:46:39.241Z,56.57
2019-02-25T07:47:39.461Z,56.54
2019-02-25T07:48:39.714Z,55.51
2019-02-25T07:49:39.990Z,55.41
2019-02-25T07:50:47.010Z,55.51
2019-02-25T07:51:41.478Z,55.62
2019-02-25T07:52:40.718Z,54.68
2019-02-25T07:53:40.972Z,56.10
2019-02-25T07:54:41.243Z,55.28
2019-02-25T07:55:41.479Z,55.18
2019-02-25T07:56:41.759Z,54.97
2019-02-25T07:57:41.976Z,54.86
2019-02-25T07:58:42.265Z,55.07
2019-02-25T07:59:42.508Z,55.15
2019-02-25T08:00:42.748Z,54.84
2019-02-25T08:01:43.019Z,53.49
2019-02-25T08:02:43.261Z,54.22
2019-02-25T08:03:43.509Z,53.91
2019-02-25T08:04:43.788Z,54.53
2019-02-25T08:05:44.028Z,54.11
2019-02-25T08:06:44.343Z,53.91
2019-02-25T08:07:44.633Z,54.01
2019-02-25T08:08:44.801Z,53.99
2019-02-25T08:09:45.066Z,53.88
2019-02-25T08:10:45.304Z,54.19
2019-02-25T08:11:45.587Z,54.61
2019-02-25T08:12:45.822Z,53.78
2019-02-25T08:13:46.047Z,52.95
2019-02-25T08:14:46.325Z,53.05
2019-02-25T08:15:46.718Z,53.65
2019-02-25T08:16:46.843Z,53.03
2019-02-25T08:17:47.094Z,53.03
2019-02-25T08:18:47.320Z,52.20
2019-02-25T08:19:47.615Z,52.31
2019-02-25T08:20:47.858Z,52.41
2019-02-25T08:21:48.101Z,52.83
2019-02-25T08:22:48.386Z,52.72
2019-02-25T08:23:48.689Z,52.62
2019-02-25T08:24:48.886Z,52.41
2019-02-25T08:25:49.123Z,52.72
2019-02-25T08:26:49.403Z,53.00
2019-02-25T08:27:49.681Z,52.91
2019-02-25T08:28:49.882Z,52.18
2019-02-25T08:29:50.376Z,52.36
2019-02-25T08:30:50.375Z,52.18
2019-02-25T08:31:50.710Z,51.64
2019-02-25T08:32:50.907Z,51.56
2019-02-25T08:33:51.137Z,51.87
2019-02-25T08:34:51.409Z,51.25
2019-02-25T08:35:52.365Z,50.81
2019-02-25T08:36:51.892Z,51.84
2019-02-25T08:37:52.182Z,51.54
2019-02-25T08:38:52.408Z,50.92
2019-02-25T08:39:52.871Z,51.64
2019-02-25T08:40:52.930Z,51.62
2019-02-25T08:41:53.179Z,51.72
2019-02-25T08:42:53.439Z,51.95
2019-02-25T08:43:53.677Z,51.43
2019-02-25T08:44:53.947Z,50.79
2019-02-25T08:45:54.186Z,51.82
2019-02-25T08:46:54.448Z,51.84
2019-02-25T08:47:54.867Z,50.79
2019-02-25T08:48:55.366Z,51.72
2019-02-25T08:49:55.369Z,51.10
2019-02-25T08:50:56.202Z,50.79
2019-02-25T08:51:55.703Z,50.99
2019-02-25T08:52:56.370Z,50.68
2019-02-25T08:53:56.232Z,50.25
2019-02-25T08:54:56.501Z,50.56
2019-02-25T08:55:58.244Z,50.56
2019-02-25T08:56:57.131Z,50.56
2019-02-25T08:57:57.242Z,50.56
2019-02-25T08:58:57.512Z,50.66
2019-02-25T08:59:57.775Z,50.02
2019-02-25T09:00:58.014Z,50.02
2019-02-25T09:01:58.860Z,50.12
2019-02-25T09:02:58.870Z,50.33
2019-02-25T09:03:58.764Z,49.81
2019-02-25T09:04:59.134Z,49.99
2019-02-25T09:05:59.296Z,49.90
2019-02-25T09:06:59.870Z,50.43
2019-02-25T09:07:59.835Z,49.27
2019-02-25T09:09:00.043Z,49.69
2019-02-25T09:10:00.385Z,49.69
2019-02-25T09:11:00.567Z,48.86
2019-02-25T09:12:00.847Z,49.46
2019-02-25T09:13:01.129Z,49.79
2019-02-25T09:14:01.321Z,49.25
2019-02-25T09:15:01.576Z,49.56
2019-02-25T09:16:01.811Z,49.25
2019-02-25T09:17:02.070Z,49.46
2019-02-25T09:18:02.339Z,49.05
2019-02-25T09:19:02.879Z,49.35
2019-02-25T09:20:02.835Z,49.46
2019-02-25T09:21:03.104Z,49.25
2019-02-25T09:22:03.393Z,49.25
2019-02-25T09:23:04.339Z,49.02
2019-02-25T09:24:03.913Z,49.25
2019-02-25T09:25:04.147Z,49.54
2019-02-25T09:26:04.422Z,49.33
2019-02-25T09:27:05.377Z,49.54
2019-02-25T09:28:05.840Z,49.44
2019-02-25T09:29:05.233Z,49.02
2019-02-25T09:30:05.873Z,49.54
2019-02-25T09:31:06.381Z,49.54
2019-02-25T09:32:05.958Z,49.74
2019-02-25T09:33:06.334Z,49.41
2019-02-25T09:34:06.492Z,49.52
2019-02-25T09:35:06.746Z,49.82
2019-02-25T09:36:07.007Z,49.90
2019-02-25T09:37:07.985Z,49.52
2019-02-25T09:38:07.612Z,49.49
2019-02-25T09:39:07.769Z,49.29
2019-02-25T09:40:07.998Z,49.98
2019-02-25T09:41:08.269Z,49.80
2019-02-25T09:42:08.506Z,49.57
2019-02-25T09:43:08.786Z,49.37
2019-02-25T09:44:09.017Z,49.26
2019-02-25T09:45:09.284Z,49.06
2019-02-25T09:46:09.611Z,49.26
2019-02-25T09:47:09.783Z,49.47
2019-02-25T09:48:10.049Z,49.57
2019-02-25T09:49:10.275Z,49.78
2019-02-25T09:50:10.556Z,50.09
2019-02-25T09:51:11.380Z,49.98
2019-02-25T09:52:11.044Z,50.06
2019-02-25T09:53:11.333Z,50.06
2019-02-25T09:54:11.632Z,50.78
2019-02-25T09:55:11.804Z,50.16
2019-02-25T09:56:12.085Z,50.48
2019-02-25T09:57:12.326Z,50.66
2019-02-25T09:58:12.594Z,50.96
2019-02-25T09:59:12.830Z,51.37
2019-02-25T10:00:13.087Z,51.37
2019-02-25T10:01:13.338Z,51.97
2019-02-25T10:02:13.644Z,52.89
2019-02-25T10:03:13.862Z,52.69
2019-02-25T10:04:14.106Z,52.87
2019-02-25T10:05:14.382Z,54.21
2019-02-25T10:06:14.612Z,53.69
2019-02-25T10:07:15.077Z,51.74
2019-02-25T10:08:15.392Z,52.25
2019-02-25T10:09:15.609Z,51.84
2019-02-25T10:10:15.883Z,52.46
2019-02-25T10:11:16.241Z,51.64
2019-02-25T10:12:16.371Z,51.95
2019-02-25T10:13:16.664Z,52.04
2019-02-25T10:14:16.888Z,52.25
2019-02-25T10:15:17.170Z,52.69
2019-02-25T10:16:17.413Z,53.28
2019-02-25T10:17:23.464Z,53.49
2019-02-25T10:18:18.909Z,53.89
2019-02-25T10:19:18.458Z,53.49
2019-02-25T10:20:18.411Z,53.56
2019-02-25T10:21:18.664Z,52.84
2019-02-25T10:22:18.880Z,52.74
2019-02-25T10:23:19.187Z,52.74
2019-02-25T10:24:19.427Z,52.33
2019-02-25T10:25:19.680Z,52.74
2019-02-25T10:26:19.955Z,52.74
2019-02-25T10:27:20.257Z,52.51
2019-02-25T10:28:20.438Z,53.77
2019-02-25T10:29:20.682Z,53.44
2019-02-25T10:30:20.935Z,53.85
2019-02-25T10:31:21.213Z,53.85
2019-02-25T10:32:23.234Z,53.64
2019-02-25T10:33:21.712Z,53.54
2019-02-25T10:34:23.934Z,52.61
2019-02-25T10:35:22.251Z,53.03
2019-02-25T10:36:22.487Z,53.72
2019-02-25T10:37:22.711Z,54.44
2019-02-25T10:38:22.987Z,55.05
2019-02-25T10:39:23.225Z,55.87
2019-02-25T10:40:24.533Z,56.49
2019-02-25T10:41:25.526Z,54.74
2019-02-25T10:42:23.963Z,54.21
2019-02-25T10:43:25.675Z,53.69
2019-02-25T10:44:24.508Z,54.61
2019-02-25T10:45:24.749Z,54.21
2019-02-25T10:46:25.032Z,54.79
2019-02-25T10:47:25.276Z,54.69
2019-02-25T10:48:25.875Z,54.59
2019-02-25T10:49:26.673Z,54.69
2019-02-25T10:50:26.036Z,54.28
2019-02-25T10:51:26.326Z,54.59
2019-02-25T10:52:26.595Z,54.59
2019-02-25T10:53:26.829Z,54.08
2019-02-25T10:54:27.083Z,55.54
2019-02-25T10:55:27.315Z,56.13
2019-02-25T10:56:27.575Z,56.02
2019-02-25T10:57:29.172Z,56.13
2019-02-25T10:58:29.116Z,56.02
2019-02-25T10:59:29.841Z,56.20
2019-02-25T11:00:28.726Z,55.90
2019-02-25T11:01:28.855Z,55.79
2019-02-25T11:02:29.097Z,55.58
2019-02-25T11:03:29.373Z,55.38
2019-02-25T11:04:29.647Z,54.85
2019-02-25T11:05:30.549Z,54.97
2019-02-25T11:06:32.075Z,54.87
2019-02-25T11:07:30.831Z,54.87
2019-02-25T11:08:30.703Z,54.97
2019-02-25T11:09:30.898Z,56.30
2019-02-25T11:10:31.138Z,57.23
2019-02-25T11:11:31.406Z,56.18
2019-02-25T11:12:32.077Z,55.66
2019-02-25T11:13:33.945Z,55.66
2019-02-25T11:14:33.346Z,55.36
2019-02-25T11:15:32.403Z,55.56
2019-02-25T11:16:32.716Z,55.15
2019-02-25T11:17:32.891Z,55.87
2019-02-25T11:18:33.165Z,56.07
2019-02-25T11:19:33.405Z,55.43
2019-02-25T11:20:35.099Z,56.28
2019-02-25T11:21:35.256Z,55.46
2019-02-25T11:22:34.159Z,55.13
2019-02-25T11:23:34.422Z,54.92
2019-02-25T11:24:34.727Z,54.72
2019-02-25T11:25:34.898Z,55.33
2019-02-25T11:26:35.314Z,55.84
2019-02-25T11:27:37.398Z,55.64
2019-02-25T11:28:36.609Z,54.82
2019-02-25T11:29:37.864Z,55.02
2019-02-25T11:30:36.159Z,55.54
2019-02-25T11:31:36.460Z,54.82
2019-02-25T11:32:36.727Z,55.33
2019-02-25T11:33:37.064Z,55.13
2019-02-25T11:34:37.580Z,55.82
2019-02-25T11:35:38.927Z,55.51
2019-02-25T11:36:37.743Z,55.41
2019-02-25T11:37:37.988Z,55.41
2019-02-25T11:38:38.254Z,54.80
2019-02-25T11:39:38.499Z,54.87
2019-02-25T11:40:38.735Z,53.85
2019-02-25T11:41:40.878Z,54.46
2019-02-25T11:42:39.235Z,54.87
2019-02-25T11:43:39.508Z,55.18
2019-02-25T11:44:40.008Z,54.57
2019-02-25T11:45:40.012Z,54.77
2019-02-25T11:46:40.244Z,55.26
2019-02-25T11:47:40.526Z,54.77
2019-02-25T11:48:40.806Z,54.13
2019-02-25T11:49:41.139Z,54.33
2019-02-25T11:50:41.284Z,54.64
2019-02-25T11:51:41.529Z,55.15
2019-02-25T11:52:41.832Z,54.74
2019-02-25T11:53:42.085Z,54.64
2019-02-25T11:54:42.343Z,54.85
2019-02-25T11:55:42.587Z,56.48
2019-02-25T11:56:42.859Z,56.27
2019-02-25T11:57:43.133Z,55.97
2019-02-25T11:58:43.349Z,55.23
2019-02-25T11:59:43.623Z,54.28
2019-02-25T12:00:43.861Z,54.69
2019-02-25T12:01:44.120Z,55.51
2019-02-25T12:02:44.377Z,55.61
2019-02-25T12:03:44.609Z,54.69
2019-02-25T12:04:44.871Z,55.20
2019-02-25T12:05:45.187Z,54.90
2019-02-25T12:06:45.408Z,54.69
2019-02-25T12:07:45.659Z,54.69
2019-02-25T12:08:45.900Z,54.57
2019-02-25T12:09:46.151Z,55.41
2019-02-25T12:10:46.402Z,55.30
2019-02-25T12:11:46.669Z,55.41
2019-02-25T12:12:46.957Z,55.79
2019-02-25T12:13:47.205Z,55.99
2019-02-25T12:14:47.514Z,56.40
2019-02-25T12:15:47.680Z,55.28
2019-02-25T12:16:47.933Z,55.58
2019-02-25T12:17:48.221Z,55.76
2019-02-25T12:18:48.443Z,55.79
2019-02-25T12:19:48.711Z,55.87
2019-02-25T12:20:48.931Z,55.87
2019-02-25T12:21:49.199Z,55.97
2019-02-25T12:22:49.639Z,55.94
2019-02-25T12:23:49.709Z,55.66
2019-02-25T12:24:49.984Z,55.66
2019-02-25T12:25:50.234Z,55.66
2019-02-25T12:26:50.473Z,56.04
2019-02-25T12:27:50.749Z,56.35
2019-02-25T12:28:50.985Z,55.84
2019-02-25T12:29:51.256Z,55.13
2019-02-25T12:30:51.538Z,55.13
2019-02-25T12:31:51.723Z,54.61
2019-02-25T12:32:52.006Z,54.21
2019-02-25T12:33:52.243Z,54.21
2019-02-25T12:34:52.509Z,53.88
2019-02-25T12:35:52.749Z,53.80
2019-02-25T12:36:52.983Z,53.50
2019-02-25T12:37:53.280Z,53.19
2019-02-25T12:38:53.588Z,53.80
2019-02-25T12:39:53.774Z,53.70
2019-02-25T12:40:54.010Z,53.59
2019-02-25T12:41:54.272Z,53.67
2019-02-25T12:42:54.536Z,54.08
2019-02-25T12:43:54.758Z,53.27
2019-02-25T12:44:55.025Z,53.47
2019-02-25T12:45:55.282Z,51.94
2019-02-25T12:46:55.567Z,52.55
2019-02-25T12:47:55.807Z,51.84
2019-02-25T12:48:56.035Z,52.55
2019-02-25T12:49:56.296Z,52.04
2019-02-25T12:50:56.561Z,52.55
2019-02-25T12:51:56.813Z,52.25
2019-02-25T12:52:57.103Z,52.04
2019-02-25T12:53:57.322Z,52.33
2019-02-25T12:54:57.596Z,52.55
2019-02-25T12:55:57.939Z,52.35